Time;durP1;ratioP1;P1;durP2;ratioP2;P2;SDS_P1;SDS_P2;PMS_P1;PMS_P2;Temp;Humidity;BMP_temperature;BMP_pressure;BME280_temperature;BME280_humidity;BME280_pressure;Samples;Min_cycle;Max_cycle;Signal;HPM_P1;HPM_P2
2022/08/02 00:00:53;;;;;;;15.18;6.08;;;;;;;25.62;100.00;99057.34;1646791;86;21052;-67
2022/08/02 00:03:22;;;;;;;9.85;5.20;;;;;;;25.58;100.00;99053.02;1644293;86;21074;-65
2022/08/02 00:05:52;;;;;;;11.00;5.87;;;;;;;25.51;100.00;99053.36;1644109;86;21067;-67
2022/08/02 00:08:19;;;;;;;9.85;5.78;;;;;;;25.45;100.00;99049.47;1647090;86;22521;-65
2022/08/02 00:10:47;;;;;;;8.00;6.00;;;;;;;25.37;100.00;99051.62;1645724;86;21076;-66
2022/08/02 00:13:15;;;;;;;9.60;6.22;;;;;;;25.43;100.00;99050.51;1644827;86;21114;-66
2022/08/02 00:15:43;;;;;;;10.25;6.03;;;;;;;25.66;100.00;99047.43;1622723;86;21106;-67
2022/08/02 00:18:14;;;;;;;9.25;6.22;;;;;;;25.57;100.00;99038.75;1643753;86;21135;-65
2022/08/02 00:20:42;;;;;;;14.78;6.78;;;;;;;25.51;100.00;99037.05;1645436;86;21135;-67
2022/08/02 00:23:11;;;;;;;9.58;6.45;;;;;;;25.55;100.00;99036.38;1645123;86;21039;-65
2022/08/02 00:25:42;;;;;;;9.25;6.50;;;;;;;25.55;100.00;99036.97;1646466;86;21075;-67
2022/08/02 00:28:09;;;;;;;10.78;6.87;;;;;;;25.51;100.00;99033.63;1645280;85;21047;-67
2022/08/02 00:30:37;;;;;;;11.30;7.12;;;;;;;25.40;100.00;99035.88;1646112;86;21066;-67
2022/08/02 00:33:07;;;;;;;7.65;5.97;;;;;;;25.39;100.00;99037.09;1645472;86;21139;-67
2022/08/02 00:35:34;;;;;;;12.60;5.92;;;;;;;25.37;100.00;99038.94;1647071;86;21524;-66
2022/08/02 00:38:02;;;;;;;8.78;6.00;;;;;;;25.35;100.00;99042.02;1646861;86;21083;-66
2022/08/02 00:40:31;;;;;;;8.35;5.95;;;;;;;25.38;100.00;99041.15;1644708;86;21166;-69
2022/08/02 00:43:08;;;;;;;7.97;5.72;;;;;;;25.41;100.00;99040.28;1620603;86;21717;-66
2022/08/02 00:45:40;;;;;;;10.72;6.40;;;;;;;25.47;100.00;99045.58;1634097;87;21179;-70
2022/08/02 00:48:07;;;;;;;8.90;6.35;;;;;;;25.50;100.00;99041.11;1684704;84;21139;-66
2022/08/02 00:50:37;;;;;;;7.85;6.90;;;;;;;25.54;100.00;99044.62;1684089;84;21123;-67
2022/08/02 00:53:08;;;;;;;11.00;6.58;;;;;;;25.53;100.00;99042.45;1683177;82;21072;-66
2022/08/02 00:55:36;;;;;;;8.45;6.45;;;;;;;25.54;100.00;99046.04;1683489;84;21127;-66
2022/08/02 00:58:03;;;;;;;10.55;7.55;;;;;;;25.57;100.00;99042.98;1668914;84;21755;-66
2022/08/02 01:00:36;;;;;;;10.05;7.22;;;;;;;25.53;100.00;99041.64;1683354;84;21025;-67
2022/08/02 01:03:04;;;;;;;8.68;7.20;;;;;;;25.49;100.00;99047.35;1682472;84;21053;-67
2022/08/02 01:05:33;;;;;;;8.95;6.42;;;;;;;25.45;100.00;99047.25;1682327;84;21067;-67
2022/08/02 01:08:01;;;;;;;10.63;7.33;;;;;;;25.38;100.00;99049.61;1685254;83;21087;-67
2022/08/02 01:10:28;;;;;;;10.08;6.62;;;;;;;25.38;100.00;99049.00;1669101;84;21535;-67
2022/08/02 01:12:58;;;;;;;10.25;6.90;;;;;;;25.42;100.00;99043.27;1682692;84;21108;-66
2022/08/02 01:15:26;;;;;;;8.75;6.30;;;;;;;25.40;100.00;99047.16;1682916;84;22246;-66
2022/08/02 01:18:04;;;;;;;11.75;7.15;;;;;;;25.33;100.00;99045.88;1682608;84;21041;-66
2022/08/02 01:21:03;;;;;;;10.72;7.47;;;;;;;25.25;100.00;99043.80;1683171;83;21111;-66
2022/08/02 01:23:44;;;;;;;9.95;6.58;;;;;;;25.26;100.00;99042.59;1662951;83;21144;-66
2022/08/02 01:26:40;;;;;;;11.78;7.80;;;;;;;25.25;100.00;99049.44;1665458;84;21874;-67
2022/08/02 01:29:33;;;;;;;10.48;6.65;;;;;;;25.26;100.00;99047.63;1683031;84;21010;-67
2022/08/02 01:32:12;;;;;;;9.30;7.03;;;;;;;25.29;100.00;99041.72;1669680;84;21086;-67
2022/08/02 01:34:59;;;;;;;9.20;7.37;;;;;;;25.38;100.00;99046.79;1687305;84;21092;-67
2022/08/02 01:37:34;;;;;;;8.90;7.00;;;;;;;25.34;100.00;99043.23;1682201;84;22020;-71
2022/08/02 01:40:09;;;;;;;8.88;6.50;;;;;;;25.32;100.00;99040.08;1683521;84;21076;-68
2022/08/02 01:42:39;;;;;;;9.45;6.45;;;;;;;25.33;100.00;99044.47;1683887;84;21107;-66
2022/08/02 01:45:11;;;;;;;12.30;7.50;;;;;;;25.43;100.00;99044.06;1686495;84;21040;-70
2022/08/02 01:47:39;;;;;;;8.83;6.90;;;;;;;25.32;100.00;99036.62;1680496;84;21013;-66
2022/08/02 01:50:12;;;;;;;10.03;6.35;;;;;;;25.18;100.00;99035.52;1677933;84;21986;-67
2022/08/02 01:52:43;;;;;;;7.33;6.62;;;;;;;25.02;100.00;99038.42;1682350;84;21513;-66
2022/08/02 01:55:23;;;;;;;11.53;7.45;;;;;;;24.85;100.00;99031.86;1686735;83;21057;-66
2022/08/02 01:57:54;;;;;;;17.02;6.87;;;;;;;24.73;100.00;99036.91;1686290;84;21084;-66
2022/08/02 02:00:24;;;;;;;10.30;7.12;;;;;;;24.63;100.00;99033.66;1683515;84;21077;-67
2022/08/02 02:02:55;;;;;;;8.98;6.35;;;;;;;24.54;100.00;99037.83;1684203;84;21105;-66
2022/08/02 02:05:25;;;;;;;12.35;7.00;;;;;;;24.52;100.00;99032.42;1684062;83;21001;-65
2022/08/02 02:07:56;;;;;;;10.82;6.62;;;;;;;24.52;100.00;99027.60;1687613;84;21100;-67
2022/08/02 02:10:32;;;;;;;13.68;7.83;;;;;;;24.52;100.00;99027.60;1686466;84;21025;-67
2022/08/02 02:13:10;;;;;;;13.53;7.40;;;;;;;24.47;100.00;99018.84;1685304;84;21581;-68
2022/08/02 02:15:44;;;;;;;13.80;7.45;;;;;;;24.57;100.00;99022.72;1685383;84;21115;-67
2022/08/02 02:18:21;;;;;;;9.05;6.80;;;;;;;24.52;100.00;99029.01;1685753;84;21497;-66
2022/08/02 02:20:47;;;;;;;9.15;7.45;;;;;;;24.53;100.00;99024.19;1664568;84;21067;-68
2022/08/02 02:23:16;;;;;;;14.43;7.45;;;;;;;24.54;100.00;99022.34;1685595;84;21905;-66
2022/08/02 02:25:46;;;;;;;13.38;7.72;;;;;;;24.56;100.00;99019.09;1684889;84;21025;-67
2022/08/02 02:28:32;;;;;;;10.15;7.50;;;;;;;24.57;100.00;99017.86;1684737;84;21041;-67
2022/08/02 02:31:09;;;;;;;13.30;7.70;;;;;;;24.60;100.00;99021.22;1686730;84;21564;-66
2022/08/02 02:33:43;;;;;;;10.80;7.12;;;;;;;24.70;100.00;99017.25;1686666;84;21128;-67
2022/08/02 02:36:10;;;;;;;10.13;7.47;;;;;;;24.76;100.00;99016.33;1683633;84;21096;-68
2022/08/02 02:38:39;;;;;;;17.23;7.42;;;;;;;24.78;100.00;99010.27;1687088;84;21077;-67
2022/08/02 02:41:13;;;;;;;9.38;7.50;;;;;;;24.79;100.00;99014.05;1667873;84;21037;-65
2022/08/02 02:43:40;;;;;;;14.63;7.03;;;;;;;24.76;100.00;99013.51;1670557;84;21040;-66
2022/08/02 02:46:09;;;;;;;15.28;7.40;;;;;;;24.73;100.00;99013.57;1686026;84;21576;-67
2022/08/02 02:48:40;;;;;;;11.48;7.42;;;;;;;24.72;100.00;99011.36;1668479;84;21033;-68
2022/08/02 02:51:07;;;;;;;8.85;7.60;;;;;;;24.73;100.00;99010.15;1685261;84;21509;-70
2022/08/02 02:53:34;;;;;;;13.72;7.33;;;;;;;24.75;100.00;99007.70;1690524;83;21042;-68
2022/08/02 02:56:03;;;;;;;9.88;6.62;;;;;;;24.67;100.00;99011.25;1687764;84;21018;-67
2022/08/02 02:58:31;;;;;;;10.45;7.00;;;;;;;24.64;100.00;99014.12;1680743;84;21557;-67
2022/08/02 03:03:44;;;;;;;14.80;7.00;;;;;;;24.70;100.00;99016.65;1684922;84;21048;-69
2022/08/02 03:06:15;;;;;;;11.78;6.67;;;;;;;24.72;100.00;99020.44;1683994;84;21041;-68
2022/08/02 03:08:42;;;;;;;15.10;6.70;;;;;;;24.69;100.00;99017.85;1647079;86;21513;-68
2022/08/02 03:11:14;;;;;;;11.03;7.00;;;;;;;24.69;100.00;99016.45;1666709;86;21001;-68
2022/08/02 03:13:42;;;;;;;12.85;6.22;;;;;;;24.79;100.00;99015.45;1673511;84;21064;-67
2022/08/02 03:16:13;;;;;;;9.73;6.65;;;;;;;24.79;100.00;99018.28;1686423;84;20990;-68
2022/08/02 03:18:43;;;;;;;12.93;7.95;;;;;;;24.78;100.00;99025.75;1672067;84;21148;-70
2022/08/02 03:21:13;;;;;;;12.25;6.60;;;;;;;24.79;100.00;99025.31;1683161;84;21541;-68
2022/08/02 03:23:43;;;;;;;12.93;7.08;;;;;;;24.77;100.00;99030.58;1688649;84;21608;-67
2022/08/02 03:26:12;;;;;;;13.53;6.47;;;;;;;24.70;100.00;99031.33;1681738;84;21577;-67
2022/08/02 03:28:40;;;;;;;11.50;6.67;;;;;;;24.65;100.00;99042.48;1679433;84;21091;-68
2022/08/02 03:31:09;;;;;;;16.32;6.45;;;;;;;24.59;100.00;99031.51;1686162;84;21787;-67
2022/08/02 03:33:38;;;;;;;17.40;7.40;;;;;;;24.60;100.00;99033.89;1694650;84;21072;-65
2022/08/02 03:36:14;;;;;;;8.03;6.30;;;;;;;24.65;100.00;99039.03;1687478;84;21100;-66
2022/08/02 03:38:51;;;;;;;10.23;7.15;;;;;;;24.66;100.00;99038.43;1672120;84;21505;-68
2022/08/02 03:41:20;;;;;;;11.03;5.90;;;;;;;24.66;100.00;99034.20;1687349;84;21048;-67
2022/08/02 03:43:51;;;;;;;10.40;6.00;;;;;;;24.60;100.00;99033.12;1683741;84;21770;-67
2022/08/02 03:46:21;;;;;;;7.15;5.67;;;;;;;24.63;100.00;99033.05;1687299;84;21033;-68
2022/08/02 03:48:55;;;;;;;12.20;6.17;;;;;;;24.66;100.00;99029.38;1682669;84;21032;-67
2022/08/02 03:51:22;;;;;;;13.93;6.12;;;;;;;24.74;100.00;99021.59;1683055;84;21065;-68
2022/08/02 03:53:51;;;;;;;7.95;6.17;;;;;;;24.78;100.00;99025.14;1687628;83;21016;-66
2022/08/02 03:56:21;;;;;;;13.20;6.65;;;;;;;24.84;100.00;99024.02;1681075;84;21841;-66
2022/08/02 03:58:49;;;;;;;11.00;6.10;;;;;;;24.91;100.00;99022.52;1672622;84;21005;-67
2022/08/02 04:01:15;;;;;;;9.25;6.05;;;;;;;24.85;100.00;99012.95;1684137;84;21064;-68
2022/08/02 04:03:47;;;;;;;7.87;5.92;;;;;;;24.83;100.00;99020.23;1681678;84;21082;-67
2022/08/02 04:06:17;;;;;;;12.75;6.53;;;;;;;24.82;100.00;99024.28;1682807;84;21100;-68
2022/08/02 04:08:44;;;;;;;12.80;6.20;;;;;;;24.84;100.00;99031.06;1684310;84;21321;-68
2022/08/02 04:11:32;;;;;;;8.10;5.87;;;;;;;24.79;100.00;99030.14;1668569;84;21069;-68
2022/08/02 04:14:04;;;;;;;10.63;6.12;;;;;;;24.76;100.00;99032.42;1681988;84;21103;-70
2022/08/02 04:16:51;;;;;;;9.50;6.37;;;;;;;24.85;100.00;99026.23;1682148;84;21092;-67
2022/08/02 04:19:48;;;;;;;7.42;5.45;;;;;;;24.92;100.00;99028.32;1682430;84;21089;-69
2022/08/02 04:22:30;;;;;;;8.63;5.70;;;;;;;24.95;100.00;99030.09;1683679;84;21150;-69
2022/08/02 04:25:00;;;;;;;12.93;5.55;;;;;;;24.98;100.00;99027.82;1674396;84;21510;-66
2022/08/02 04:27:30;;;;;;;13.13;5.97;;;;;;;24.96;100.00;99035.30;1685919;84;21010;-68
2022/08/02 04:29:58;;;;;;;11.22;5.97;;;;;;;24.99;100.00;99023.16;1682874;84;21014;-66
2022/08/02 04:32:33;;;;;;;11.10;6.50;;;;;;;24.89;100.00;99020.70;1683860;84;21030;-67
2022/08/02 04:35:01;;;;;;;10.63;6.37;;;;;;;24.78;100.00;99030.78;1684878;84;21272;-65
2022/08/02 04:37:38;;;;;;;8.10;5.60;;;;;;;24.68;100.00;99031.77;1681120;84;21045;-66
2022/08/02 04:40:11;;;;;;;9.73;5.17;;;;;;;24.78;100.00;99033.59;1681203;84;21097;-67
2022/08/02 04:42:39;;;;;;;9.60;5.25;;;;;;;24.79;100.00;99037.99;1682233;84;21495;-67
2022/08/02 04:45:08;;;;;;;7.05;5.62;;;;;;;24.75;100.00;99040.09;1677113;84;21041;-66
2022/08/02 04:47:38;;;;;;;6.70;5.22;;;;;;;24.88;100.00;99035.22;1678730;84;21376;-68
2022/08/02 04:50:06;;;;;;;9.63;5.80;;;;;;;24.89;100.00;99041.05;1684117;84;21073;-70
2022/08/02 04:52:33;;;;;;;8.38;5.75;;;;;;;24.84;100.00;99047.95;1675434;84;21506;-69
2022/08/02 04:55:04;;;;;;;8.40;5.40;;;;;;;24.84;100.00;99052.18;1681004;84;21053;-69
2022/08/02 05:00:19;;;;;;;9.48;5.58;;;;;;;25.04;100.00;99062.73;1678539;84;21047;-68
2022/08/02 05:02:51;;;;;;;12.65;6.20;;;;;;;24.99;100.00;99064.64;1679234;84;21111;-67
2022/08/02 05:05:19;;;;;;;12.07;6.05;;;;;;;24.94;100.00;99072.18;1680795;84;21057;-67
2022/08/02 05:07:53;;;;;;;8.70;5.78;;;;;;;24.91;100.00;99073.82;1660664;84;20995;-70
2022/08/02 05:10:25;;;;;;;8.40;5.50;;;;;;;24.87;100.00;99074.48;1682243;84;21156;-70
2022/08/02 05:12:53;;;;;;;5.35;4.30;;;;;;;25.04;100.00;99074.78;1682579;83;21577;-69
2022/08/02 05:15:21;;;;;;;8.73;4.05;;;;;;;25.19;100.00;99077.34;1660618;84;21530;-67
2022/08/02 05:17:51;;;;;;;5.55;3.92;;;;;;;25.33;100.00;99066.42;1678229;83;21565;-68
2022/08/02 05:20:19;;;;;;;7.75;3.83;;;;;;;25.09;100.00;99069.28;1676431;83;21023;-66
2022/08/02 05:22:49;;;;;;;4.58;3.15;;;;;;;25.09;100.00;99066.47;1675948;84;21589;-67
2022/08/02 05:25:17;;;;;;;6.60;3.33;;;;;;;25.09;100.00;99064.26;1673034;84;21557;-65
2022/08/02 05:27:59;;;;;;;7.75;3.25;;;;;;;24.96;100.00;99060.65;1680685;84;21068;-69
2022/08/02 05:30:48;;;;;;;6.00;3.37;;;;;;;24.90;100.00;99057.52;1674168;84;21015;-68
2022/08/02 05:33:21;;;;;;;9.80;3.40;;;;;;;24.96;100.00;99058.47;1680670;84;21558;-76
2022/08/02 05:35:49;;;;;;;7.60;3.42;;;;;;;25.00;100.00;99058.58;1686458;84;21054;-67
2022/08/02 05:38:21;;;;;;;3.92;2.70;;;;;;;24.76;100.00;99061.38;1683816;84;21274;-70
2022/08/02 05:40:53;;;;;;;6.97;3.02;;;;;;;24.64;100.00;99059.98;1684362;84;21105;-70
2022/08/02 05:43:29;;;;;;;5.03;3.25;;;;;;;24.61;100.00;99067.08;1677356;84;21669;-77
2022/08/02 05:45:59;;;;;;;7.70;3.12;;;;;;;24.63;100.00;99068.86;1681476;84;21541;-75
2022/08/02 05:48:32;;;;;;;10.20;3.72;;;;;;;24.63;100.00;99074.48;1682768;84;21058;-69
2022/08/02 05:51:03;;;;;;;5.20;3.33;;;;;;;24.55;100.00;99085.05;1661187;84;21164;-70
2022/08/02 05:53:41;;;;;;;6.33;3.33;;;;;;;24.50;100.00;99084.13;1682324;84;21089;-68
2022/08/02 05:56:28;;;;;;;5.47;3.40;;;;;;;24.53;100.00;99087.52;1686516;84;21125;-72
2022/08/02 05:59:05;;;;;;;7.62;3.72;;;;;;;24.52;100.00;99095.16;1682000;84;21056;-66
2022/08/02 06:01:36;;;;;;;10.32;4.40;;;;;;;24.55;100.00;99092.89;1679943;84;21053;-66
2022/08/02 06:04:10;;;;;;;8.93;4.08;;;;;;;24.57;100.00;99100.14;1684361;84;21574;-66
2022/08/02 06:06:43;;;;;;;8.45;4.00;;;;;;;24.78;100.00;99095.55;1679698;84;21601;-66
2022/08/02 06:09:18;;;;;;;10.55;4.00;;;;;;;24.92;100.00;99094.52;1681701;84;21307;-66
2022/08/02 06:11:50;;;;;;;6.03;4.30;;;;;;;25.02;100.00;99096.98;1673137;84;21030;-67
2022/08/02 06:14:21;;;;;;;12.65;4.72;;;;;;;25.03;100.00;99099.97;1678906;84;25811;-71
2022/08/02 06:16:51;;;;;;;7.55;3.52;;;;;;;24.90;100.00;99099.77;1675288;84;21076;-75
2022/08/02 06:19:19;;;;;;;12.45;3.80;;;;;;;24.75;100.00;99096.41;1677907;84;21136;-67
2022/08/02 06:21:49;;;;;;;10.65;4.05;;;;;;;24.56;100.00;99106.38;1653058;84;21030;-66
2022/08/02 06:24:19;;;;;;;11.25;3.83;;;;;;;24.41;100.00;99095.95;1630887;84;21601;-65
2022/08/02 06:26:53;;;;;;;9.80;3.85;;;;;;;24.38;100.00;99098.99;1676722;84;21132;-72
2022/08/02 06:29:20;;;;;;;12.68;3.65;;;;;;;24.40;100.00;99097.16;1683778;84;21270;-67
2022/08/02 06:31:50;;;;;;;6.53;4.30;;;;;;;24.50;100.00;99097.60;1684761;84;21526;-67
2022/08/02 06:34:23;;;;;;;9.88;3.87;;;;;;;24.50;100.00;99090.56;1676945;84;21045;-67
2022/08/02 06:37:39;;;;;;;10.95;4.28;;;;;;;24.54;100.00;99092.72;1643989;85;21361;-67
2022/08/02 06:40:20;;;;;;;9.45;5.85;;;;;;;24.52;100.00;99085.31;1685706;83;21002;-69
2022/08/02 06:42:52;;;;;;;11.03;5.45;;;;;;;24.88;100.00;99076.06;1680392;84;21101;-68
2022/08/02 06:45:20;;;;;;;6.90;5.17;;;;;;;24.66;100.00;99079.26;1686672;84;21029;-68
2022/08/02 06:47:50;;;;;;;8.88;4.50;;;;;;;24.67;100.00;99082.25;1686630;84;21571;-69
2022/08/02 06:50:19;;;;;;;8.60;4.65;;;;;;;24.61;100.00;99086.18;1680973;84;21083;-69
2022/08/02 06:52:47;;;;;;;5.55;3.98;;;;;;;24.65;100.00;99080.49;1686064;84;20986;-68
2022/08/02 06:55:21;;;;;;;13.38;5.30;;;;;;;24.54;100.00;99091.92;1680345;83;21174;-67
2022/08/02 06:57:52;;;;;;;9.00;4.12;;;;;;;24.46;100.00;99091.85;1677345;84;21088;-68
2022/08/02 07:00:20;;;;;;;11.33;3.87;;;;;;;24.47;100.00;99092.83;1683668;83;20995;-72
2022/08/02 07:02:48;;;;;;;9.08;4.10;;;;;;;24.50;100.00;99092.58;1683386;84;21537;-72
2022/08/02 07:05:15;;;;;;;7.90;4.75;;;;;;;24.57;100.00;99087.47;1682293;84;21072;-73
2022/08/02 07:07:44;;;;;;;9.38;4.20;;;;;;;24.52;100.00;99089.53;1678947;84;21232;-67
2022/08/02 07:10:15;;;;;;;7.65;4.62;;;;;;;24.51;100.00;99087.15;1683228;84;21498;-68
2022/08/02 07:12:43;;;;;;;12.33;4.40;;;;;;;24.50;100.00;99091.97;1677703;84;21052;-68
2022/08/02 07:15:12;;;;;;;9.78;4.60;;;;;;;24.48;100.00;99087.37;1685367;84;21407;-67
2022/08/02 07:17:40;;;;;;;9.35;4.62;;;;;;;24.48;100.00;99091.59;1682366;84;21093;-65
2022/08/02 07:20:08;;;;;;;9.68;4.70;;;;;;;24.47;100.00;99097.05;1666090;86;21132;-69
2022/08/02 07:22:40;;;;;;;9.43;4.33;;;;;;;24.55;100.00;99092.89;1668390;84;21146;-68
2022/08/02 07:25:10;;;;;;;7.97;4.67;;;;;;;24.60;100.00;99095.06;1680313;84;21040;-67
2022/08/02 07:27:37;;;;;;;7.65;4.80;;;;;;;24.61;100.00;99091.81;1685999;83;21034;-66
2022/08/02 07:30:08;;;;;;;7.42;4.50;;;;;;;24.56;100.00;99093.70;1683350;83;20993;-67
2022/08/02 07:32:36;;;;;;;8.28;4.08;;;;;;;24.61;100.00;99086.18;1680729;83;21236;-68
2022/08/02 07:35:11;;;;;;;12.82;4.33;;;;;;;24.55;100.00;99094.30;1679188;84;21089;-68
2022/08/02 07:37:42;;;;;;;8.08;4.78;;;;;;;24.65;100.00;99097.39;1682739;84;21095;-68
2022/08/02 07:40:11;;;;;;;6.00;4.33;;;;;;;24.41;100.00;99112.20;1680218;84;21045;-67
2022/08/02 07:42:59;;;;;;;9.65;4.03;;;;;;;24.79;100.00;99106.99;1677363;84;21058;-67
2022/08/02 07:45:28;;;;;;;10.35;4.33;;;;;;;24.61;100.00;99116.34;1674201;84;20998;-68
2022/08/02 07:47:56;;;;;;;6.00;4.53;;;;;;;24.28;100.00;99127.48;1674329;84;21085;-67
2022/08/02 07:50:23;;;;;;;7.95;3.87;;;;;;;24.09;100.00;99126.11;1675100;84;21025;-67
2022/08/02 07:52:49;;;;;;;7.70;3.90;;;;;;;24.35;100.00;99123.77;1674473;84;21111;-66
2022/08/02 07:55:20;;;;;;;6.50;4.47;;;;;;;24.17;100.00;99124.81;1680506;83;21107;-69
2022/08/02 07:57:52;;;;;;;6.42;3.72;;;;;;;24.25;100.00;99128.34;1678577;84;21105;-66
2022/08/02 08:00:22;;;;;;;5.25;3.80;;;;;;;24.24;100.00;99121.10;1674919;84;21553;-67
2022/08/02 08:02:49;;;;;;;8.18;4.33;;;;;;;24.27;100.00;99124.50;1657952;84;21213;-67
2022/08/02 08:05:18;;;;;;;7.40;4.30;;;;;;;24.32;100.00;99123.22;1674399;84;21036;-66
2022/08/02 08:07:46;;;;;;;8.58;4.00;;;;;;;24.46;100.00;99134.88;1674787;83;21020;-66
2022/08/02 08:10:16;;;;;;;7.00;4.12;;;;;;;24.44;100.00;99134.50;1667985;84;21241;-68
2022/08/02 08:12:45;;;;;;;5.85;3.77;;;;;;;24.31;100.00;99123.02;1675317;84;21502;-66
2022/08/02 08:15:13;;;;;;;8.18;4.50;;;;;;;24.25;100.00;99125.53;1676563;84;21036;-66
2022/08/02 08:17:41;;;;;;;8.33;4.40;;;;;;;24.24;100.00;99130.17;1674781;84;21692;-67
2022/08/02 08:20:09;;;;;;;12.90;5.53;;;;;;;24.23;100.00;99139.22;1677149;84;21030;-66
2022/08/02 08:22:37;;;;;;;10.98;5.70;;;;;;;24.18;100.00;99139.09;1682458;84;21554;-66
2022/08/02 08:25:08;;;;;;;10.32;5.42;;;;;;;24.13;100.00;99145.16;1675785;84;21060;-67
2022/08/02 08:27:40;;;;;;;6.78;5.12;;;;;;;24.26;100.00;99132.73;1676916;84;21010;-67
2022/08/02 08:30:09;;;;;;;13.32;5.47;;;;;;;24.40;100.00;99145.81;1679182;84;21034;-68
2022/08/02 08:32:35;;;;;;;10.25;5.17;;;;;;;24.47;100.00;99147.72;1682731;83;21140;-67
2022/08/02 08:35:05;;;;;;;10.18;5.10;;;;;;;24.43;100.00;99149.18;1678318;84;21622;-67
2022/08/02 08:37:41;;;;;;;9.85;5.90;;;;;;;24.46;100.00;99153.17;1678440;84;21109;-68
2022/08/02 08:40:10;;;;;;;15.53;6.03;;;;;;;24.51;100.00;99161.15;1675183;84;21041;-66
2022/08/02 08:42:42;;;;;;;13.43;6.00;;;;;;;24.71;100.00;99156.81;1675076;84;21099;-67
2022/08/02 08:45:10;;;;;;;8.78;5.42;;;;;;;24.68;100.00;99152.84;1664255;84;21064;-67
2022/08/02 08:47:40;;;;;;;9.55;5.12;;;;;;;24.68;100.00;99155.66;1680492;84;21212;-67
2022/08/02 08:50:13;;;;;;;10.00;5.72;;;;;;;24.70;100.00;99163.08;1676798;84;21116;-66
2022/08/02 08:53:09;;;;;;;8.90;5.53;;;;;;;24.69;100.00;99153.02;1676450;84;22270;-69
2022/08/02 08:55:36;;;;;;;8.75;5.62;;;;;;;24.75;100.00;99155.55;1668878;84;21039;-67
2022/08/02 08:58:03;;;;;;;9.08;5.37;;;;;;;24.55;100.00;99157.66;1665091;86;21518;-67
2022/08/02 09:00:40;;;;;;;11.18;5.25;;;;;;;24.44;100.00;99155.62;1671763;84;21089;-70
2022/08/02 09:03:08;;;;;;;11.03;5.97;;;;;;;24.41;100.00;99162.87;1679318;84;21014;-67
2022/08/02 09:05:41;;;;;;;8.33;5.15;;;;;;;24.32;100.00;99171.06;1677977;84;21100;-69
2022/08/02 09:08:13;;;;;;;18.85;5.62;;;;;;;24.30;100.00;99170.08;1678544;84;21009;-71
2022/08/02 09:10:46;;;;;;;10.70;6.10;;;;;;;24.28;100.00;99172.52;1677192;84;21064;-66
2022/08/02 09:16:07;;;;;;;9.03;6.72;;;;;;;24.24;100.00;99177.38;1669719;84;21107;-67
2022/08/02 09:18:38;;;;;;;10.58;6.40;;;;;;;24.19;100.00;99179.29;1653836;84;21072;-67
2022/08/02 09:21:09;;;;;;;12.45;6.08;;;;;;;24.11;100.00;99181.35;1669321;84;21061;-67
2022/08/02 09:23:39;;;;;;;11.68;6.65;;;;;;;24.10;100.00;99189.61;1669149;84;21053;-67
2022/08/02 09:26:09;;;;;;;9.43;6.37;;;;;;;24.17;100.00;99189.53;1681669;84;21535;-68
2022/08/02 09:28:42;;;;;;;8.50;6.85;;;;;;;24.13;100.00;99190.77;1667533;84;21048;-68
2022/08/02 09:31:24;;;;;;;14.68;6.83;;;;;;;24.03;100.00;99188.30;1667408;84;21049;-66
2022/08/02 09:33:56;;;;;;;9.93;6.08;;;;;;;23.94;100.00;99189.60;1666111;84;21068;-67
2022/08/02 09:36:27;;;;;;;10.15;6.05;;;;;;;23.95;100.00;99194.63;1681205;84;21052;-67
2022/08/02 09:39:00;;;;;;;13.28;5.60;;;;;;;23.94;100.00;99191.61;1684282;84;21560;-66
2022/08/02 09:41:33;;;;;;;13.62;5.62;;;;;;;23.89;100.00;99190.66;1676978;84;21659;-69
2022/08/02 09:44:03;;;;;;;12.40;6.30;;;;;;;23.84;100.00;99189.12;1665880;84;21037;-67
2022/08/02 09:46:33;;;;;;;13.58;7.22;;;;;;;23.63;100.00;99202.19;1672969;84;21080;-69
2022/08/02 09:49:15;;;;;;;8.98;6.45;;;;;;;23.53;100.00;99197.48;1686978;83;21163;-69
2022/08/02 09:51:55;;;;;;;12.03;7.10;;;;;;;23.33;100.00;99205.88;1685184;84;22084;-67
2022/08/02 09:54:27;;;;;;;16.85;9.80;;;;;;;23.53;100.00;99206.72;1680271;83;20991;-67
2022/08/02 09:56:59;;;;;;;18.40;9.18;;;;;;;23.58;100.00;99211.89;1678636;84;21057;-68
2022/08/02 09:59:28;;;;;;;11.40;7.85;;;;;;;23.59;100.00;99216.28;1683895;83;21124;-69
2022/08/02 10:01:58;;;;;;;8.73;6.45;;;;;;;23.62;100.00;99215.27;1683977;84;21069;-66
2022/08/02 10:04:32;;;;;;;12.60;6.58;;;;;;;23.64;100.00;99210.03;1685625;84;21223;-67
2022/08/02 10:06:58;;;;;;;10.60;6.97;;;;;;;23.64;100.00;99198.78;1672696;84;21084;-72
2022/08/02 10:09:27;;;;;;;13.75;6.42;;;;;;;23.62;100.00;99199.20;1676621;84;21014;-67
2022/08/02 10:12:01;;;;;;;11.57;6.62;;;;;;;23.58;100.00;99201.24;1679229;84;21095;-73
2022/08/02 10:14:34;;;;;;;11.10;6.83;;;;;;;23.58;100.00;99209.67;1690716;84;21017;-67
2022/08/02 10:17:01;;;;;;;9.33;6.67;;;;;;;23.78;100.00;99212.67;1687705;84;21788;-66
2022/08/02 10:19:27;;;;;;;10.45;6.65;;;;;;;23.64;100.00;99212.84;1685263;84;21040;-67
2022/08/02 10:22:11;;;;;;;10.00;6.62;;;;;;;23.80;100.00;99213.06;1682675;84;21081;-70
2022/08/02 10:24:39;;;;;;;9.68;5.33;;;;;;;23.71;100.00;99202.30;1686497;84;21631;-69
2022/08/02 10:27:23;;;;;;;13.98;6.60;;;;;;;23.98;100.00;99201.41;1680652;84;21127;-69
2022/08/02 10:29:53;;;;;;;10.03;6.17;;;;;;;24.01;100.00;99201.97;1682137;84;21624;-74
2022/08/02 10:32:44;;;;;;;9.20;5.70;;;;;;;24.07;100.00;99192.64;1686515;83;21485;-66
2022/08/02 10:35:22;;;;;;;9.25;5.75;;;;;;;23.89;100.00;99195.69;1680702;84;21077;-70
2022/08/02 10:37:54;;;;;;;10.80;5.95;;;;;;;23.83;100.00;99189.72;1685455;84;20990;-68
2022/08/02 10:40:22;;;;;;;;;;;;;;;23.92;100.00;99186.41;1684744;84;21260;-68
2022/08/02 10:42:51;;;;;;;9.83;5.42;;;;;;;23.65;100.00;99201.17;1679624;84;21340;-65
2022/08/02 10:45:21;;;;;;;7.50;5.20;;;;;;;23.78;100.00;99209.86;1649050;84;21041;-69
2022/08/02 10:48:10;;;;;;;11.00;5.55;;;;;;;24.06;100.00;99203.72;1657461;84;21022;-70
2022/08/02 10:50:51;;;;;;;7.00;5.12;;;;;;;24.05;100.00;99208.36;1678501;84;21080;-66
2022/08/02 10:53:30;;;;;;;7.20;5.55;;;;;;;24.44;100.00;99210.50;1672462;84;37140;-68
2022/08/02 10:56:03;;;;;;;4.53;4.12;;;;;;;24.40;100.00;99199.89;1670483;84;21093;-67
2022/08/02 10:58:34;;;;;;;13.65;5.42;;;;;;;24.42;100.00;99196.05;1670192;84;21085;-67
2022/08/02 11:01:05;;;;;;;8.53;5.37;;;;;;;24.43;100.00;99200.45;1669808;84;21073;-67
2022/08/02 11:03:39;;;;;;;5.87;4.90;;;;;;;24.40;100.00;99199.89;1674287;84;21117;-68
2022/08/02 11:06:09;;;;;;;10.23;5.03;;;;;;;24.34;100.00;99202.41;1681051;84;21058;-70
2022/08/02 11:08:40;;;;;;;9.65;5.45;;;;;;;24.57;100.00;99197.27;1668287;84;21191;-66
2022/08/02 11:11:16;;;;;;;10.28;5.20;;;;;;;24.58;100.00;99195.44;1663358;84;21064;-67
2022/08/02 11:14:08;;;;;;;7.00;5.15;;;;;;;24.55;100.00;99200.48;1658973;86;21030;-66
2022/08/02 11:17:01;;;;;;;7.35;4.85;;;;;;;24.52;100.00;99193.70;1685316;84;21097;-65
2022/08/02 11:19:27;;;;;;;9.45;4.37;;;;;;;24.47;100.00;99204.62;1645958;84;21114;-65
2022/08/02 11:22:08;;;;;;;6.80;4.33;;;;;;;24.47;100.00;99206.03;1684356;84;21731;-68
2022/08/02 11:24:38;;;;;;;6.47;4.10;;;;;;;24.53;100.00;99200.91;1684228;84;21113;-67
2022/08/02 11:27:06;;;;;;;6.33;4.15;;;;;;;24.59;100.00;99204.05;1676903;83;21081;-72
2022/08/02 11:29:41;;;;;;;8.98;4.53;;;;;;;24.46;100.00;99191.78;1685263;83;21042;-65
2022/08/02 11:32:17;;;;;;;10.55;4.85;;;;;;;24.42;100.00;99190.42;1687455;84;21074;-67
2022/08/02 11:34:48;;;;;;;8.28;4.55;;;;;;;24.33;100.00;99194.38;1655081;85;21177;-66
2022/08/02 11:37:38;;;;;;;13.88;5.08;;;;;;;24.39;100.00;99200.52;1650688;84;21065;-65
2022/08/02 11:40:15;;;;;;;7.62;4.70;;;;;;;24.26;100.00;99200.91;1660974;85;20978;-67
2022/08/02 11:42:49;;;;;;;10.40;5.10;;;;;;;24.26;100.00;99200.28;1659810;85;21606;-68
2022/08/02 11:45:22;;;;;;;10.82;4.47;;;;;;;24.14;100.00;99207.23;1664162;85;21081;-68
2022/08/02 11:47:51;;;;;;;7.70;5.12;;;;;;;24.39;100.00;99204.75;1661409;84;21239;-69
2022/08/02 11:50:19;;;;;;;11.43;4.58;;;;;;;24.37;100.00;99206.38;1656430;85;21065;-66
2022/08/02 11:52:45;;;;;;;12.85;4.47;;;;;;;24.54;100.00;99203.93;1660801;85;21050;-66